Time;durP1;ratioP1;P1;durP2;ratioP2;P2;SDS_P1;SDS_P2;PMS_P1;PMS_P2;Temp;Humidity;BMP_temperature;BMP_pressure;BME280_temperature;BME280_humidity;BME280_pressure;Samples;Min_cycle;Max_cycle;Signal;HPM_P1;HPM_P2
2022/10/08 00:00:19;;;;;;;;;;;21.70;75.90;;;;;;4211318;27;19916;-43
2022/10/08 00:02:41;;;;;;;;;;;21.70;75.90;;;;;;4211928;27;19923;-43
2022/10/08 00:05:03;;;;;;;;;;;21.80;75.90;;;;;;4210914;27;19938;-41
2022/10/08 00:07:25;;;;;;;;;;;21.80;75.80;;;;;;4212923;27;19978;-44
2022/10/08 00:09:47;;;;;;;;;;;21.80;75.60;;;;;;4208330;27;19934;-46
2022/10/08 00:12:09;;;;;;;;;;;21.90;75.60;;;;;;4214403;27;20332;-46
2022/10/08 00:14:31;;;;;;;;;;;21.90;75.50;;;;;;4213095;27;19923;-42
2022/10/08 00:16:52;;;;;;;;;;;21.90;75.30;;;;;;4210956;27;19923;-41
2022/10/08 00:19:15;;;;;;;;;;;21.90;75.40;;;;;;4215297;27;20022;-41
2022/10/08 00:21:37;;;;;;;;;;;21.90;75.20;;;;;;4215277;27;19916;-41
2022/10/08 00:24:00;;;;;;;;;;;21.90;75.00;;;;;;4216126;27;19915;-41
2022/10/08 00:26:23;;;;;;;;;;;21.80;74.50;;;;;;4223009;27;19915;-42
2022/10/08 00:28:46;;;;;;;;;;;21.80;74.50;;;;;;4207211;27;19927;-44
2022/10/08 00:31:09;;;;;;;;;;;21.90;74.50;;;;;;4197076;27;19923;-42
2022/10/08 00:33:33;;;;;;;;;;;21.90;74.40;;;;;;4215715;27;19915;-41
2022/10/08 00:35:55;;;;;;;;;;;21.90;74.20;;;;;;4215187;27;19916;-42
2022/10/08 00:38:17;;;;;;;;;;;21.90;74.10;;;;;;4206998;27;20362;-41
2022/10/08 00:40:45;;;;;;;;;;;21.90;74.10;;;;;;4214182;27;19926;-44
2022/10/08 00:43:11;;;;;;;;;;;21.90;74.00;;;;;;4205345;27;19922;-42
2022/10/08 00:45:33;;;;;;;;;;;21.80;73.90;;;;;;4221086;27;20002;-42
2022/10/08 00:47:57;;;;;;;;;;;21.80;74.00;;;;;;4211188;27;19919;-43
2022/10/08 00:50:22;;;;;;;;;;;21.90;73.90;;;;;;4217027;27;19938;-41
2022/10/08 00:53:04;;;;;;;;;;;21.90;74.00;;;;;;4212672;27;19915;-43
2022/10/08 00:55:27;;;;;;;;;;;21.90;74.00;;;;;;4204183;28;19985;-41
2022/10/08 00:57:50;;;;;;;;;;;21.90;73.90;;;;;;4212453;27;19919;-41
2022/10/08 01:00:15;;;;;;;;;;;21.90;73.80;;;;;;4213044;27;19919;-43
2022/10/08 01:02:37;;;;;;;;;;;21.90;73.70;;;;;;4217208;27;20401;-43
2022/10/08 01:04:59;;;;;;;;;;;21.90;73.60;;;;;;4216458;27;20394;-42
2022/10/08 01:07:26;;;;;;;;;;;22.00;73.60;;;;;;4214159;27;19915;-43
2022/10/08 01:10:05;;;;;;;;;;;22.00;73.50;;;;;;4207794;27;19924;-41
2022/10/08 01:12:40;;;;;;;;;;;22.00;73.50;;;;;;4217201;27;19947;-42
2022/10/08 01:15:09;;;;;;;;;;;22.00;73.50;;;;;;4214013;27;19991;-42
2022/10/08 01:17:43;;;;;;;;;;;22.00;73.30;;;;;;4209251;27;19920;-46
2022/10/08 01:20:05;;;;;;;;;;;22.00;73.20;;;;;;4207099;27;19916;-47
2022/10/08 01:22:28;;;;;;;;;;;22.00;73.30;;;;;;4212510;27;20440;-43
2022/10/08 01:27:36;;;;;;;;;;;22.10;73.20;;;;;;4206796;27;19929;-41
2022/10/08 01:30:00;;;;;;;;;;;22.10;73.00;;;;;;4205222;27;19928;-43
2022/10/08 01:32:30;;;;;;;;;;;22.10;72.90;;;;;;4213901;27;19918;-43
2022/10/08 01:35:03;;;;;;;;;;;22.10;73.00;;;;;;4216044;27;19922;-42
2022/10/08 01:37:32;;;;;;;;;;;22.10;73.00;;;;;;4209856;27;20370;-42
2022/10/08 01:39:56;;;;;;;;;;;22.10;73.00;;;;;;4210994;27;20377;-44
2022/10/08 01:42:22;;;;;;;;;;;22.10;72.90;;;;;;4205216;27;20465;-43
2022/10/08 01:44:58;;;;;;;;;;;22.10;73.00;;;;;;4205195;27;20473;-43
2022/10/08 01:47:22;;;;;;;;;;;22.10;72.80;;;;;;4201688;27;19924;-45
2022/10/08 01:49:56;;;;;;;;;;;22.10;72.90;;;;;;4203120;27;19932;-43
2022/10/08 01:52:24;;;;;;;;;;;22.10;72.90;;;;;;4195461;27;19916;-43
2022/10/08 01:54:47;;;;;;;;;;;22.10;72.90;;;;;;4219155;27;19926;-45
2022/10/08 01:57:10;;;;;;;;;;;22.10;72.90;;;;;;4190487;28;19967;-43
2022/10/08 01:59:50;;;;;;;;;;;22.10;72.90;;;;;;4213982;27;20276;-42
2022/10/08 02:02:22;;;;;;;;;;;22.10;72.90;;;;;;4210009;27;20007;-47
2022/10/08 02:04:44;;;;;;;;;;;22.10;72.90;;;;;;4220783;27;19968;-47
2022/10/08 02:07:07;;;;;;;;;;;22.10;72.90;;;;;;4217181;27;19915;-44
2022/10/08 02:09:30;;;;;;;;;;;22.20;72.90;;;;;;4222578;27;20206;-45
2022/10/08 02:11:52;;;;;;;;;;;22.20;72.90;;;;;;4216099;27;19919;-42
2022/10/08 02:14:14;;;;;;;;;;;22.20;72.90;;;;;;4206566;27;19972;-43
2022/10/08 02:16:38;;;;;;;;;;;22.20;72.90;;;;;;4210323;27;20383;-42
2022/10/08 02:19:00;;;;;;;;;;;22.20;72.90;;;;;;4203340;27;20536;-44
2022/10/08 02:21:24;;;;;;;;;;;22.20;73.00;;;;;;4214549;27;19919;-44
2022/10/08 02:23:49;;;;;;;;;;;22.20;73.00;;;;;;4206102;27;20355;-46
2022/10/08 02:26:14;;;;;;;;;;;22.20;73.00;;;;;;4208911;27;20395;-44
2022/10/08 02:28:43;;;;;;;;;;;22.20;73.00;;;;;;4218652;27;20172;-43
2022/10/08 02:31:13;;;;;;;;;;;22.20;73.00;;;;;;4217640;27;19970;-41
2022/10/08 02:33:40;;;;;;;;;;;22.20;72.90;;;;;;4221089;27;20299;-41
2022/10/08 02:36:03;;;;;;;;;;;22.20;72.90;;;;;;4214763;27;19916;-46
2022/10/08 02:38:36;;;;;;;;;;;22.20;72.90;;;;;;4202169;28;19924;-42
2022/10/08 02:41:00;;;;;;;;;;;22.20;72.90;;;;;;4209640;27;20264;-42
2022/10/08 02:43:27;;;;;;;;;;;22.20;72.90;;;;;;4219357;28;20002;-43
2022/10/08 02:45:54;;;;;;;;;;;22.20;72.90;;;;;;4217856;27;19920;-42
2022/10/08 02:48:21;;;;;;;;;;;22.20;72.90;;;;;;4217865;27;19967;-47
2022/10/08 02:50:44;;;;;;;;;;;22.20;72.90;;;;;;4219055;27;19912;-46
2022/10/08 02:53:06;;;;;;;;;;;22.20;72.90;;;;;;4219216;27;19923;-48
2022/10/08 02:55:42;;;;;;;;;;;22.20;73.00;;;;;;4211715;28;20546;-41
2022/10/08 02:58:08;;;;;;;;;;;22.20;73.10;;;;;;4199369;28;19916;-43
2022/10/08 03:00:34;;;;;;;;;;;22.20;73.10;;;;;;4211486;28;20381;-45
2022/10/08 03:03:00;;;;;;;;;;;22.30;73.20;;;;;;4221099;27;19921;-43
2022/10/08 03:05:22;;;;;;;;;;;22.20;73.20;;;;;;4221891;27;20010;-42
2022/10/08 03:07:45;;;;;;;;;;;22.20;73.20;;;;;;4222305;27;19915;-44
2022/10/08 03:10:07;;;;;;;;;;;22.20;73.20;;;;;;4217586;27;19923;-43
2022/10/08 03:12:30;;;;;;;;;;;22.20;73.30;;;;;;4230837;27;20378;-41
2022/10/08 03:14:52;;;;;;;;;;;22.20;73.40;;;;;;4223993;27;20453;-43
2022/10/08 03:17:16;;;;;;;;;;;22.20;73.50;;;;;;4230395;27;19916;-47
2022/10/08 03:19:38;;;;;;;;;;;22.20;73.50;;;;;;4215946;27;19923;-43
2022/10/08 03:22:00;;;;;;;;;;;22.20;73.50;;;;;;4220950;27;20046;-49
2022/10/08 03:24:22;;;;;;;;;;;22.20;73.60;;;;;;4222095;27;20271;-42
2022/10/08 03:26:44;;;;;;;;;;;22.20;73.70;;;;;;4231449;27;19922;-44
2022/10/08 03:29:06;;;;;;;;;;;22.20;73.70;;;;;;4222424;27;19926;-42
2022/10/08 03:31:28;;;;;;;;;;;22.20;73.70;;;;;;4213384;27;19927;-43
2022/10/08 03:33:51;;;;;;;;;;;22.20;73.70;;;;;;4215544;27;19916;-43
2022/10/08 03:36:13;;;;;;;;;;;22.20;73.70;;;;;;4224054;27;20006;-41
2022/10/08 03:38:35;;;;;;;;;;;22.20;73.70;;;;;;4230636;27;19915;-44
2022/10/08 03:40:58;;;;;;;;;;;22.20;73.70;;;;;;4228462;27;19915;-46
2022/10/08 03:43:20;;;;;;;;;;;22.20;73.70;;;;;;4218609;27;19960;-44
2022/10/08 03:45:48;;;;;;;;;;;22.20;73.70;;;;;;4212752;27;19948;-45
2022/10/08 03:48:09;;;;;;;;;;;22.20;73.70;;;;;;4217151;27;20095;-44
2022/10/08 03:50:31;;;;;;;;;;;22.20;73.70;;;;;;4226598;27;20286;-45
2022/10/08 03:52:53;;;;;;;;;;;22.20;73.70;;;;;;4213897;27;20337;-41
2022/10/08 03:55:15;;;;;;;;;;;22.20;73.80;;;;;;4217278;27;20365;-43
2022/10/08 03:57:37;;;;;;;;;;;22.20;73.80;;;;;;4217439;27;20450;-44
2022/10/08 03:59:59;;;;;;;;;;;22.20;73.70;;;;;;4212887;27;19920;-42
2022/10/08 04:02:21;;;;;;;;;;;22.20;73.80;;;;;;4213516;27;19957;-43
2022/10/08 04:04:43;;;;;;;;;;;22.20;73.80;;;;;;4209047;27;19993;-44
2022/10/08 04:07:05;;;;;;;;;;;22.20;73.80;;;;;;4220464;27;20334;-42
2022/10/08 04:09:26;;;;;;;;;;;22.20;73.90;;;;;;4219847;27;19939;-43
2022/10/08 04:11:48;;;;;;;;;;;22.20;73.70;;;;;;4224544;27;20445;-42
2022/10/08 04:14:10;;;;;;;;;;;22.20;73.90;;;;;;4220645;27;19915;-42
2022/10/08 04:16:32;;;;;;;;;;;22.20;73.80;;;;;;4226757;27;19919;-43
2022/10/08 04:18:54;;;;;;;;;;;22.20;73.90;;;;;;4207911;27;20391;-42
2022/10/08 04:21:17;;;;;;;;;;;22.10;73.90;;;;;;4226735;27;19916;-43
2022/10/08 04:23:39;;;;;;;;;;;22.20;73.90;;;;;;4223216;27;20014;-44
2022/10/08 04:26:01;;;;;;;;;;;22.10;74.00;;;;;;4220768;27;19916;-42
2022/10/08 04:28:23;;;;;;;;;;;22.10;74.00;;;;;;4220748;27;19919;-41
2022/10/08 04:31:01;;;;;;;;;;;22.10;73.90;;;;;;4223294;27;19943;-42
2022/10/08 04:33:23;;;;;;;;;;;22.10;74.00;;;;;;4224039;27;20106;-41
2022/10/08 04:35:45;;;;;;;;;;;22.10;74.10;;;;;;4216311;27;19927;-42
2022/10/08 04:38:07;;;;;;;;;;;22.10;74.20;;;;;;4208475;27;20041;-43
2022/10/08 04:40:29;;;;;;;;;;;22.10;74.10;;;;;;4210009;27;19920;-47
2022/10/08 04:42:51;;;;;;;;;;;22.10;74.20;;;;;;4219743;27;19920;-43
2022/10/08 04:45:13;;;;;;;;;;;22.10;74.20;;;;;;4220535;27;19923;-44
2022/10/08 04:47:35;;;;;;;;;;;22.10;74.20;;;;;;4212980;27;20006;-42
2022/10/08 04:49:57;;;;;;;;;;;22.10;74.10;;;;;;4213297;27;19933;-41
2022/10/08 04:52:19;;;;;;;;;;;22.10;74.30;;;;;;4209380;27;20038;-43
2022/10/08 04:54:41;;;;;;;;;;;22.10;74.50;;;;;;4219980;27;19995;-43
2022/10/08 04:57:03;;;;;;;;;;;22.10;74.70;;;;;;4203733;27;19916;-41
2022/10/08 04:59:25;;;;;;;;;;;22.10;74.80;;;;;;4216191;27;20018;-41
2022/10/08 05:01:47;;;;;;;;;;;22.10;74.90;;;;;;4220302;27;19965;-41
2022/10/08 05:04:09;;;;;;;;;;;22.10;74.90;;;;;;4204808;27;19973;-41
2022/10/08 05:06:31;;;;;;;;;;;22.00;75.00;;;;;;4209755;27;20250;-41
2022/10/08 05:08:53;;;;;;;;;;;22.00;75.00;;;;;;4214007;27;19927;-42
2022/10/08 05:11:15;;;;;;;;;;;22.00;75.00;;;;;;4220475;27;19920;-42
2022/10/08 05:13:37;;;;;;;;;;;22.00;75.10;;;;;;4216202;27;20354;-41
2022/10/08 05:16:05;;;;;;;;;;;22.10;75.30;;;;;;4208374;27;19919;-42
2022/10/08 05:18:27;;;;;;;;;;;22.00;75.30;;;;;;4213598;27;20298;-41
2022/10/08 05:20:49;;;;;;;;;;;22.00;75.30;;;;;;4209281;27;19920;-45
2022/10/08 05:23:11;;;;;;;;;;;22.00;75.40;;;;;;4205605;27;20340;-43
2022/10/08 05:25:33;;;;;;;;;;;22.00;75.50;;;;;;4213952;27;19916;-44
2022/10/08 05:27:55;;;;;;;;;;;22.00;75.50;;;;;;4217746;27;19938;-43
2022/10/08 05:30:17;;;;;;;;;;;22.00;75.40;;;;;;4215338;27;19920;-45
2022/10/08 05:32:39;;;;;;;;;;;22.00;75.60;;;;;;4207747;27;19916;-46
2022/10/08 05:35:01;;;;;;;;;;;22.00;75.50;;;;;;4211984;27;19916;-43
2022/10/08 05:37:23;;;;;;;;;;;22.00;75.50;;;;;;4214372;27;20385;-43
2022/10/08 05:39:46;;;;;;;;;;;22.00;75.80;;;;;;4209686;27;19927;-42
2022/10/08 05:42:08;;;;;;;;;;;22.00;75.80;;;;;;4214890;27;20010;-44
2022/10/08 05:44:30;;;;;;;;;;;22.00;75.90;;;;;;4215050;27;19920;-43
2022/10/08 05:46:52;;;;;;;;;;;22.00;76.00;;;;;;4213546;27;20035;-41
2022/10/08 05:49:18;;;;;;;;;;;22.00;76.00;;;;;;4210892;27;20292;-43
2022/10/08 05:51:40;;;;;;;;;;;22.00;76.00;;;;;;4204136;27;20062;-41
2022/10/08 05:54:02;;;;;;;;;;;22.00;76.00;;;;;;4215174;27;19923;-44
2022/10/08 05:56:25;;;;;;;;;;;22.00;76.00;;;;;;4203610;27;19994;-47
2022/10/08 05:58:47;;;;;;;;;;;22.00;76.00;;;;;;4214947;27;19918;-49
2022/10/08 06:01:12;;;;;;;;;;;22.00;76.00;;;;;;4185731;28;19920;-42
2022/10/08 06:03:34;;;;;;;;;;;22.00;76.00;;;;;;4199577;27;19916;-46
2022/10/08 06:06:02;;;;;;;;;;;21.90;75.90;;;;;;4202369;27;19950;-43
2022/10/08 06:08:24;;;;;;;;;;;22.00;76.00;;;;;;4205806;27;20022;-45
2022/10/08 06:10:52;;;;;;;;;;;21.90;75.80;;;;;;4200827;27;19923;-44
2022/10/08 06:13:14;;;;;;;;;;;21.90;75.70;;;;;;4204031;27;19968;-46
2022/10/08 06:15:36;;;;;;;;;;;21.90;75.60;;;;;;4218979;27;19922;-42
2022/10/08 06:18:00;;;;;;;;;;;21.90;75.60;;;;;;4206278;27;19970;-48
2022/10/08 06:20:22;;;;;;;;;;;21.90;75.70;;;;;;4216478;27;19916;-43
2022/10/08 06:22:44;;;;;;;;;;;21.90;75.80;;;;;;4212772;27;19919;-43
2022/10/08 06:25:06;;;;;;;;;;;21.90;76.00;;;;;;4208728;27;20286;-49
2022/10/08 06:27:28;;;;;;;;;;;21.90;76.10;;;;;;4212831;27;19915;-44
2022/10/08 06:29:50;;;;;;;;;;;21.90;76.20;;;;;;4212840;27;20371;-46
2022/10/08 06:32:12;;;;;;;;;;;21.90;76.20;;;;;;4216418;27;19915;-45
2022/10/08 06:34:34;;;;;;;;;;;21.80;76.30;;;;;;4211950;27;19958;-45
2022/10/08 06:36:56;;;;;;;;;;;21.90;76.40;;;;;;4215061;27;20015;-43
2022/10/08 06:39:18;;;;;;;;;;;21.80;76.40;;;;;;4215744;27;19920;-42
2022/10/08 06:41:40;;;;;;;;;;;21.90;76.30;;;;;;4212217;27;19915;-47
2022/10/08 06:44:03;;;;;;;;;;;21.80;76.10;;;;;;4212096;27;19919;-43
2022/10/08 06:46:25;;;;;;;;;;;21.90;76.10;;;;;;4207992;27;19917;-45
2022/10/08 06:48:47;;;;;;;;;;;21.90;76.00;;;;;;4213953;27;20003;-43
2022/10/08 06:51:14;;;;;;;;;;;21.90;76.10;;;;;;4205702;27;20238;-43
2022/10/08 06:53:36;;;;;;;;;;;21.80;76.20;;;;;;4206423;28;19989;-43
2022/10/08 06:55:59;;;;;;;;;;;21.80;76.10;;;;;;4210010;27;19922;-42
2022/10/08 06:58:21;;;;;;;;;;;21.90;76.40;;;;;;4211814;28;19974;-45
2022/10/08 07:00:43;;;;;;;;;;;21.90;76.40;;;;;;4204661;28;19923;-45
2022/10/08 07:03:05;;;;;;;;;;;21.90;76.50;;;;;;4212422;27;20423;-44
2022/10/08 07:05:27;;;;;;;;;;;21.90;76.50;;;;;;4209011;27;19915;-46
2022/10/08 07:07:48;;;;;;;;;;;21.80;76.30;;;;;;4216214;27;20022;-42
2022/10/08 07:10:11;;;;;;;;;;;21.90;76.40;;;;;;4210918;27;20125;-42
2022/10/08 07:12:33;;;;;;;;;;;21.80;76.50;;;;;;4203486;28;19916;-42
2022/10/08 07:14:54;;;;;;;;;;;21.80;76.40;;;;;;4201179;28;20336;-43
2022/10/08 07:17:16;;;;;;;;;;;21.80;76.40;;;;;;4208723;28;19923;-45
2022/10/08 07:19:38;;;;;;;;;;;21.80;76.40;;;;;;4217704;27;19947;-42
2022/10/08 07:22:00;;;;;;;;;;;21.80;76.50;;;;;;4217089;28;19916;-43
2022/10/08 07:24:22;;;;;;;;;;;21.80;76.40;;;;;;4213100;28;20159;-42
2022/10/08 07:26:44;;;;;;;;;;;21.80;76.40;;;;;;4212635;28;19922;-44
2022/10/08 07:29:07;;;;;;;;;;;21.80;76.50;;;;;;4208459;28;20026;-42
2022/10/08 07:31:31;;;;;;;;;;;21.80;76.40;;;;;;4209933;28;19930;-42
2022/10/08 07:33:53;;;;;;;;;;;21.80;76.40;;;;;;4220623;28;20345;-46
2022/10/08 07:36:17;;;;;;;;;;;21.80;76.50;;;;;;4205309;28;20700;-42
2022/10/08 07:38:40;;;;;;;;;;;21.80;76.40;;;;;;4212212;28;19927;-46
2022/10/08 07:41:02;;;;;;;;;;;21.70;76.40;;;;;;4205029;28;21448;-45
2022/10/08 07:43:23;;;;;;;;;;;21.70;76.50;;;;;;4213634;28;19915;-44
2022/10/08 07:45:45;;;;;;;;;;;21.70;76.40;;;;;;4216488;27;20291;-45
2022/10/08 07:48:07;;;;;;;;;;;21.70;76.40;;;;;;4216246;28;20010;-42
2022/10/08 07:50:29;;;;;;;;;;;21.70;76.40;;;;;;4214020;28;19927;-44
2022/10/08 07:52:52;;;;;;;;;;;21.70;76.40;;;;;;4211745;27;20289;-43
2022/10/08 07:55:14;;;;;;;;;;;21.70;76.40;;;;;;4216716;27;19922;-47
2022/10/08 07:57:35;;;;;;;;;;;21.70;76.40;;;;;;4212377;27;20488;-46
2022/10/08 07:59:57;;;;;;;;;;;21.70;76.40;;;;;;4217587;27;20049;-41
2022/10/08 08:02:19;;;;;;;;;;;21.70;76.20;;;;;;4201178;27;19917;-43
2022/10/08 08:04:41;;;;;;;;;;;21.70;76.20;;;;;;4210895;27;20391;-43
2022/10/08 08:07:03;;;;;;;;;;;21.70;76.20;;;;;;4215889;27;19969;-42
2022/10/08 08:09:25;;;;;;;;;;;21.70;76.20;;;;;;4214340;27;20291;-45
2022/10/08 08:11:47;;;;;;;;;;;21.60;76.10;;;;;;4214966;27;19923;-45
2022/10/08 08:14:09;;;;;;;;;;;21.60;76.10;;;;;;4219570;27;19972;-43
2022/10/08 08:16:31;;;;;;;;;;;21.60;76.00;;;;;;4215926;27;19954;-44
2022/10/08 08:18:54;;;;;;;;;;;21.60;76.00;;;;;;4219754;27;20260;-45
2022/10/08 08:21:18;;;;;;;;;;;21.60;76.00;;;;;;4220196;27;19912;-44
2022/10/08 08:23:44;;;;;;;;;;;21.60;76.00;;;;;;4218704;27;19920;-44
2022/10/08 08:26:08;;;;;;;;;;;21.60;76.00;;;;;;4216464;27;20006;-42
2022/10/08 08:28:30;;;;;;;;;;;21.60;75.90;;;;;;4214764;27;19920;-42
2022/10/08 08:30:52;;;;;;;;;;;21.60;75.80;;;;;;4217561;27;20357;-44
2022/10/08 08:33:14;;;;;;;;;;;21.60;75.90;;;;;;4215380;27;19923;-43
2022/10/08 08:35:36;;;;;;;;;;;21.50;75.80;;;;;;4214515;27;19955;-45
2022/10/08 08:37:58;;;;;;;;;;;21.50;75.80;;;;;;4218120;27;19915;-41
2022/10/08 08:40:19;;;;;;;;;;;21.50;75.70;;;;;;4216797;27;19915;-42
2022/10/08 08:42:48;;;;;;;;;;;21.50;75.70;;;;;;4225362;27;19975;-42
2022/10/08 08:45:30;;;;;;;;;;;21.50;75.70;;;;;;4215765;27;19916;-40
2022/10/08 08:47:56;;;;;;;;;;;21.50;75.70;;;;;;4217936;27;19923;-43
2022/10/08 08:50:29;;;;;;;;;;;21.50;75.70;;;;;;4212800;27;20406;-45
2022/10/08 08:52:51;;;;;;;;;;;21.50;75.70;;;;;;4222215;27;20786;-41
2022/10/08 08:55:14;;;;;;;;;;;21.50;75.60;;;;;;4224985;27;19916;-41
2022/10/08 08:57:54;;;;;;;;;;;21.50;75.50;;;;;;4216041;27;19916;-46
2022/10/08 09:00:23;;;;;;;;;;;21.50;75.60;;;;;;4219630;27;19915;-42
2022/10/08 09:02:56;;;;;;;;;;;21.40;75.60;;;;;;4216997;27;19916;-42
2022/10/08 09:05:19;;;;;;;;;;;21.40;75.60;;;;;;4216936;27;19923;-41
2022/10/08 09:07:43;;;;;;;;;;;21.40;75.50;;;;;;4224459;27;19919;-44
2022/10/08 09:10:08;;;;;;;;;;;21.40;75.50;;;;;;4225003;27;19973;-41
2022/10/08 09:12:37;;;;;;;;;;;21.40;75.60;;;;;;4218040;27;19939;-42
2022/10/08 09:15:00;;;;;;;;;;;21.40;75.50;;;;;;4222250;27;20310;-42
2022/10/08 09:17:32;;;;;;;;;;;21.40;75.60;;;;;;4218470;27;19923;-41
2022/10/08 09:19:54;;;;;;;;;;;21.40;75.60;;;;;;4198791;27;19928;-44
2022/10/08 09:22:27;;;;;;;;;;;21.40;75.60;;;;;;4214131;27;19966;-41
2022/10/08 09:24:50;;;;;;;;;;;21.40;75.60;;;;;;4216575;27;19920;-46
2022/10/08 09:27:15;;;;;;;;;;;21.40;75.60;;;;;;4207060;27;19960;-43
2022/10/08 09:29:37;;;;;;;;;;;21.40;75.60;;;;;;4214059;27;19972;-45
2022/10/08 09:31:59;;;;;;;;;;;21.30;75.60;;;;;;4212400;27;19922;-42
2022/10/08 09:34:21;;;;;;;;;;;21.30;75.60;;;;;;4213220;27;19999;-44
2022/10/08 09:36:45;;;;;;;;;;;21.30;75.60;;;;;;4220714;27;20297;-41
2022/10/08 09:39:15;;;;;;;;;;;21.30;75.60;;;;;;4224871;27;19922;-41
2022/10/08 09:41:37;;;;;;;;;;;21.30;75.50;;;;;;4219115;27;20303;-41
2022/10/08 09:44:25;;;;;;;;;;;21.30;75.60;;;;;;4215040;27;20008;-43
2022/10/08 09:46:47;;;;;;;;;;;21.30;75.50;;;;;;4213152;27;20016;-43
2022/10/08 09:49:30;;;;;;;;;;;21.30;75.50;;;;;;4212884;28;19979;-45
2022/10/08 09:51:52;;;;;;;;;;;21.30;75.50;;;;;;4206312;28;20395;-42
2022/10/08 09:54:17;;;;;;;;;;;21.30;75.50;;;;;;4197989;28;19923;-47
2022/10/08 09:56:39;;;;;;;;;;;21.20;75.20;;;;;;4199823;28;20086;-43
2022/10/08 09:59:03;;;;;;;;;;;21.30;75.30;;;;;;4202046;28;19916;-43
2022/10/08 10:01:25;;;;;;;;;;;21.20;75.30;;;;;;4202393;28;19924;-42
2022/10/08 10:03:49;;;;;;;;;;;21.20;75.20;;;;;;4200039;28;20380;-45
2022/10/08 10:06:10;;;;;;;;;;;21.20;75.20;;;;;;4201986;28;20442;-43
2022/10/08 10:08:47;;;;;;;;;;;21.20;75.20;;;;;;4202072;28;19915;-41
2022/10/08 10:11:13;;;;;;;;;;;21.20;75.20;;;;;;4203154;28;19920;-43
2022/10/08 10:13:37;;;;;;;;;;;21.20;75.10;;;;;;4203429;28;19920;-42
2022/10/08 10:16:19;;;;;;;;;;;21.20;75.10;;;;;;4204645;28;19927;-42
2022/10/08 10:18:56;;;;;;;;;;;21.20;75.10;;;;;;4199457;28;19997;-41
2022/10/08 10:21:24;;;;;;;;;;;21.10;75.00;;;;;;4200449;28;19915;-45
2022/10/08 10:23:52;;;;;;;;;;;21.10;75.00;;;;;;4194995;28;20363;-42
2022/10/08 10:26:26;;;;;;;;;;;21.10;75.00;;;;;;4195469;28;19915;-45
2022/10/08 10:28:51;;;;;;;;;;;21.10;75.00;;;;;;4197404;28;19967;-44
2022/10/08 10:31:15;;;;;;;;;;;21.10;75.00;;;;;;4192619;28;19916;-43
2022/10/08 10:33:42;;;;;;;;;;;21.10;74.90;;;;;;4190935;28;20346;-44
2022/10/08 10:36:06;;;;;;;;;;;21.10;74.90;;;;;;4204245;28;19916;-45
2022/10/08 10:38:28;;;;;;;;;;;21.10;74.80;;;;;;4209118;28;20427;-44
2022/10/08 10:41:00;;;;;;;;;;;21.00;74.80;;;;;;4193962;28;20273;-42
2022/10/08 10:43:25;;;;;;;;;;;21.00;74.80;;;;;;4210390;28;19923;-46
2022/10/08 10:45:50;;;;;;;;;;;21.00;74.80;;;;;;4209151;28;19912;-44
2022/10/08 10:48:13;;;;;;;;;;;21.00;74.80;;;;;;4222767;27;20414;-42
2022/10/08 10:50:53;;;;;;;;;;;21.00;74.80;;;;;;4212049;28;19924;-41
2022/10/08 10:53:21;;;;;;;;;;;21.00;74.90;;;;;;4213288;28;19916;-44
2022/10/08 10:55:51;;;;;;;;;;;21.00;74.80;;;;;;4224784;27;19916;-44
2022/10/08 10:58:42;;;;;;;;;;;21.00;74.80;;;;;;4226260;27;19927;-43
2022/10/08 11:01:13;;;;;;;;;;;21.00;74.80;;;;;;4219483;27;19942;-41
2022/10/08 11:03:49;;;;;;;;;;;21.00;74.80;;;;;;4215408;27;19951;-45
2022/10/08 11:06:31;;;;;;;;;;;20.90;74.80;;;;;;4213801;28;19919;-44
2022/10/08 11:09:00;;;;;;;;;;;20.90;74.70;;;;;;4216645;27;19928;-42
2022/10/08 11:11:30;;;;;;;;;;;20.90;74.70;;;;;;4228630;27;19960;-41
2022/10/08 11:14:00;;;;;;;;;;;20.90;74.70;;;;;;4216477;27;20010;-43
2022/10/08 11:16:28;;;;;;;;;;;20.90;74.60;;;;;;4213945;28;20015;-46
2022/10/08 11:18:54;;;;;;;;;;;20.90;74.60;;;;;;4220258;27;19916;-45
2022/10/08 11:21:16;;;;;;;;;;;20.90;74.70;;;;;;4222212;28;20018;-42
2022/10/08 11:23:46;;;;;;;;;;;20.90;74.60;;;;;;4213718;27;20278;-46
2022/10/08 11:26:16;;;;;;;;;;;20.90;74.60;;;;;;4226615;27;19923;-41
2022/10/08 11:28:53;;;;;;;;;;;20.90;74.60;;;;;;4221884;27;19957;-42
2022/10/08 11:31:21;;;;;;;;;;;20.90;74.60;;;;;;4225968;27;19919;-42
2022/10/08 11:33:43;;;;;;;;;;;20.90;74.50;;;;;;4216311;27;19916;-45
2022/10/08 11:36:08;;;;;;;;;;;20.80;74.50;;;;;;4217164;27;20712;-43
2022/10/08 11:38:36;;;;;;;;;;;20.80;74.50;;;;;;4218429;27;20341;-43
2022/10/08 11:41:18;;;;;;;;;;;20.80;74.50;;;;;;4218143;27;19915;-44
2022/10/08 11:43:54;;;;;;;;;;;20.80;74.50;;;;;;4217016;27;19916;-42
2022/10/08 11:46:32;;;;;;;;;;;20.80;74.50;;;;;;4218996;27;20008;-41
2022/10/08 11:49:01;;;;;;;;;;;20.80;74.50;;;;;;4231171;27;19923;-44
2022/10/08 11:51:23;;;;;;;;;;;20.80;74.50;;;;;;4229391;27;19912;-44
2022/10/08 11:54:03;;;;;;;;;;;20.80;74.50;;;;;;4219365;27;19959;-43
2022/10/08 11:56:24;;;;;;;;;;;20.70;74.40;;;;;;4227983;27;19912;-44
2022/10/08 11:58:51;;;;;;;;;;;20.70;74.40;;;;;;4223961;27;20126;-42
2022/10/08 12:01:14;;;;;;;;;;;20.70;74.40;;;;;;4214150;28;20503;-46
2022/10/08 12:03:37;;;;;;;;;;;20.70;74.50;;;;;;4218179;27;19920;-43
2022/10/08 12:06:12;;;;;;;;;;;20.70;74.40;;;;;;4224747;27;19912;-46
2022/10/08 12:08:52;;;;;;;;;;;20.70;74.40;;;;;;4223642;27;19923;-46
2022/10/08 12:11:29;;;;;;;;;;;20.70;74.40;;;;;;4232463;27;19941;-43
2022/10/08 12:14:09;;;;;;;;;;;20.70;74.50;;;;;;4225109;27;19915;-43
2022/10/08 12:16:46;;;;;;;;;;;20.70;74.50;;;;;;4214402;27;20038;-44
2022/10/08 12:19:28;;;;;;;;;;;20.70;74.90;;;;;;4221753;27;19927;-42
2022/10/08 12:21:50;;;;;;;;;;;20.70;75.40;;;;;;4215369;27;20393;-43
2022/10/08 12:24:30;;;;;;;;;;;20.70;75.70;;;;;;4214977;27;20277;-45
2022/10/08 12:27:10;;;;;;;;;;;20.70;75.80;;;;;;4214921;27;19927;-48
2022/10/08 12:29:52;;;;;;;;;;;20.80;75.80;;;;;;4216404;27;19924;-43
2022/10/08 12:32:14;;;;;;;;;;;20.80;75.80;;;;;;4217574;27;19916;-44
2022/10/08 12:34:42;;;;;;;;;;;20.80;75.70;;;;;;4214745;27;19916;-45
2022/10/08 12:37:09;;;;;;;;;;;20.80;75.70;;;;;;4215179;27;19912;-46
2022/10/08 12:39:36;;;;;;;;;;;20.80;75.60;;;;;;4220355;27;20006;-43
2022/10/08 12:42:11;;;;;;;;;;;20.90;75.70;;;;;;4219590;27;19961;-44
2022/10/08 12:44:51;;;;;;;;;;;20.90;75.80;;;;;;4203270;28;20629;-43
2022/10/08 12:47:13;;;;;;;;;;;20.90;75.90;;;;;;4218474;27;19922;-43
2022/10/08 12:49:38;;;;;;;;;;;20.90;75.80;;;;;;4219646;27;19924;-43
2022/10/08 12:52:04;;;;;;;;;;;20.90;75.80;;;;;;4219100;27;19922;-44
2022/10/08 12:54:27;;;;;;;;;;;20.90;75.70;;;;;;4213035;27;19916;-43
2022/10/08 12:56:49;;;;;;;;;;;20.90;75.60;;;;;;4214552;27;20275;-47
2022/10/08 12:59:12;;;;;;;;;;;20.90;75.60;;;;;;4213234;27;19920;-44
2022/10/08 13:01:34;;;;;;;;;;;21.00;75.70;;;;;;4213512;27;19919;-43
2022/10/08 13:04:09;;;;;;;;;;;20.90;75.60;;;;;;4214733;27;19919;-47
2022/10/08 13:06:31;;;;;;;;;;;20.90;75.70;;;;;;4219617;27;19923;-43
2022/10/08 13:08:53;;;;;;;;;;;20.90;75.70;;;;;;4223315;27;20635;-45
2022/10/08 13:11:15;;;;;;;;;;;20.90;75.60;;;;;;4216193;27;19916;-43
2022/10/08 13:13:37;;;;;;;;;;;20.90;75.60;;;;;;4220484;27;20010;-43
2022/10/08 13:16:00;;;;;;;;;;;20.90;75.50;;;;;;4217664;27;19920;-46
2022/10/08 13:18:22;;;;;;;;;;;21.00;75.70;;;;;;4219521;27;19916;-44
2022/10/08 13:20:57;;;;;;;;;;;21.00;76.20;;;;;;4218100;27;19958;-43
2022/10/08 13:23:37;;;;;;;;;;;21.00;75.50;;;;;;4214707;27;20363;-43
2022/10/08 13:25:59;;;;;;;;;;;20.90;75.50;;;;;;4225390;27;19916;-47
2022/10/08 13:28:22;;;;;;;;;;;21.00;75.50;;;;;;4221122;27;19916;-44
2022/10/08 13:30:45;;;;;;;;;;;20.90;75.60;;;;;;4219439;27;20291;-46
2022/10/08 13:33:12;;;;;;;;;;;20.90;75.70;;;;;;4218969;27;19911;-43
2022/10/08 13:35:34;;;;;;;;;;;20.90;75.80;;;;;;4221209;27;19927;-44
2022/10/08 13:37:56;;;;;;;;;;;20.90;75.80;;;;;;4214692;27;19959;-45
2022/10/08 13:40:20;;;;;;;;;;;20.90;75.80;;;;;;4213263;27;19999;-43
2022/10/08 13:42:44;;;;;;;;;;;20.90;75.80;;;;;;4212020;27;19934;-43
2022/10/08 13:45:12;;;;;;;;;;;20.90;75.70;;;;;;4216859;27;20374;-47
2022/10/08 13:47:34;;;;;;;;;;;20.90;75.80;;;;;;4217026;27;20944;-42
2022/10/08 13:50:00;;;;;;;;;;;20.90;75.80;;;;;;4216610;27;19984;-45
2022/10/08 13:52:24;;;;;;;;;;;20.90;75.80;;;;;;4215186;27;20431;-43
2022/10/08 13:54:46;;;;;;;;;;;20.90;75.80;;;;;;4221178;27;20351;-45
2022/10/08 13:57:09;;;;;;;;;;;20.90;75.80;;;;;;4219859;27;19919;-43
2022/10/08 13:59:30;;;;;;;;;;;20.80;75.70;;;;;;4221045;27;20199;-43
2022/10/08 14:01:52;;;;;;;;;;;20.80;75.80;;;;;;4216355;27;20367;-41
2022/10/08 14:04:15;;;;;;;;;;;20.80;75.90;;;;;;4215286;27;19920;-43
2022/10/08 14:06:38;;;;;;;;;;;20.80;75.70;;;;;;4229617;27;19976;-43